Terminal Aerodrome Forecast
Issued by NWS

Home | Current Version | Previous Version | Text Only | Print | Product List | Glossary On
Versions: 1 2 3 4 5 6 7 8 9 10 11 12
000
FTUS43 KSGF 281135
TAFJLN
TAF
KJLN 281135Z 2812/2912 18012KT P6SM BKN150 OVC250
     FM290000 17010KT P6SM SCT080 OVC150 PROB30 2902/2908 5SM TSRA
      SCT050CB OVC080
     FM290800 17009KT 6SM SHRA VCTS OVC050CB
      TEMPO 2908/2912 3SM SHRA OVC040=

USA.gov is the U.S. government's official web portal to all federal, state and local government web resources and services.